sensor_id;sensor_type;location;lat;lon;timestamp;pressure;altitude;pressure_sealevel;temperature;humidity
22096;BME280;24083;55.670;37.568;2023-06-10T00:01:20;99361.59;;;15.63;78.24
22096;BME280;24083;55.670;37.568;2023-06-10T00:03:49;99361.41;;;15.38;79.65
22096;BME280;24083;55.670;37.568;2023-06-10T00:09:09;99349.34;;;15.76;78.35
22096;BME280;24083;55.670;37.568;2023-06-10T00:11:36;99359.88;;;15.49;78.77
22096;BME280;24083;55.670;37.568;2023-06-10T00:14:02;99356.66;;;15.31;79.51
22096;BME280;24083;55.670;37.568;2023-06-10T00:22:19;99356.00;;;15.95;79.08
22096;BME280;24083;55.670;37.568;2023-06-10T00:24:50;99367.97;;;15.31;80.13
22096;BME280;24083;55.670;37.568;2023-06-10T00:30:10;99385.19;;;14.93;81.17
22096;BME280;24083;55.670;37.568;2023-06-10T00:32:45;99384.75;;;14.72;81.34
22096;BME280;24083;55.670;37.568;2023-06-10T00:35:11;99371.97;;;15.37;80.15
22096;BME280;24083;55.670;37.568;2023-06-10T00:37:36;99380.94;;;14.78;81.23
22096;BME280;24083;55.670;37.568;2023-06-10T00:40:02;99386.69;;;14.97;80.79
22096;BME280;24083;55.670;37.568;2023-06-10T00:42:28;99395.88;;;15.19;80.42
22096;BME280;24083;55.670;37.568;2023-06-10T00:45:04;99393.41;;;14.44;80.26
22096;BME280;24083;55.670;37.568;2023-06-10T00:53:28;99404.13;;;14.98;80.63
22096;BME280;24083;55.670;37.568;2023-06-10T00:55:54;99403.06;;;15.30;80.24
22096;BME280;24083;55.670;37.568;2023-06-10T00:58:20;99409.00;;;14.61;81.46
22096;BME280;24083;55.670;37.568;2023-06-10T01:00:49;99408.81;;;15.22;80.83
22096;BME280;24083;55.670;37.568;2023-06-10T01:03:18;99413.22;;;15.49;79.43
22096;BME280;24083;55.670;37.568;2023-06-10T01:05:44;99412.63;;;15.17;80.70
22096;BME280;24083;55.670;37.568;2023-06-10T01:08:19;99417.34;;;15.53;80.18
22096;BME280;24083;55.670;37.568;2023-06-10T01:13:39;99424.44;;;15.38;80.72
22096;BME280;24083;55.670;37.568;2023-06-10T01:16:13;99413.50;;;15.03;81.36
22096;BME280;24083;55.670;37.568;2023-06-10T01:18:40;99420.06;;;15.24;80.71
22096;BME280;24083;55.670;37.568;2023-06-10T01:21:05;99427.38;;;14.90;81.20
22096;BME280;24083;55.670;37.568;2023-06-10T01:23:54;99428.50;;;15.30;81.64
22096;BME280;24083;55.670;37.568;2023-06-10T01:26:18;99433.94;;;15.26;81.39
22096;BME280;24083;55.670;37.568;2023-06-10T01:31:41;99437.03;;;16.15;79.64
22096;BME280;24083;55.670;37.568;2023-06-10T01:34:10;99443.78;;;16.20;79.38
22096;BME280;24083;55.670;37.568;2023-06-10T01:36:37;99446.88;;;15.99;80.09
22096;BME280;24083;55.670;37.568;2023-06-10T01:39:09;99440.63;;;14.89;82.45
22096;BME280;24083;55.670;37.568;2023-06-10T01:44:43;99443.13;;;15.34;81.41
22096;BME280;24083;55.670;37.568;2023-06-10T01:47:15;99444.91;;;15.61;81.88
22096;BME280;24083;55.670;37.568;2023-06-10T02:04:31;99467.06;;;15.56;83.38
22096;BME280;24083;55.670;37.568;2023-06-10T02:06:59;99471.25;;;14.88;84.56
22096;BME280;24083;55.670;37.568;2023-06-10T02:09:41;99470.56;;;14.56;84.85
22096;BME280;24083;55.670;37.568;2023-06-10T02:12:07;99476.25;;;14.62;85.75
22096;BME280;24083;55.670;37.568;2023-06-10T02:14:34;99477.25;;;14.76;85.56
22096;BME280;24083;55.670;37.568;2023-06-10T02:17:03;99486.06;;;15.04;84.79
22096;BME280;24083;55.670;37.568;2023-06-10T02:19:30;99489.66;;;15.32;84.30
22096;BME280;24083;55.670;37.568;2023-06-10T02:21:56;99488.84;;;15.44;83.25
22096;BME280;24083;55.670;37.568;2023-06-10T02:27:22;99483.22;;;15.50;84.05
22096;BME280;24083;55.670;37.568;2023-06-10T02:29:48;99494.34;;;14.83;84.82
22096;BME280;24083;55.670;37.568;2023-06-10T02:32:14;99496.97;;;14.52;85.93
22096;BME280;24083;55.670;37.568;2023-06-10T02:34:47;99474.59;;;15.48;83.69
22096;BME280;24083;55.670;37.568;2023-06-10T02:37:15;99488.00;;;16.00;82.70
22096;BME280;24083;55.670;37.568;2023-06-10T02:39:50;99482.50;;;15.76;82.17
22096;BME280;24083;55.670;37.568;2023-06-10T02:42:17;99492.38;;;15.01;84.53
22096;BME280;24083;55.670;37.568;2023-06-10T02:44:46;99485.25;;;15.74;82.28
22096;BME280;24083;55.670;37.568;2023-06-10T02:50:24;99484.06;;;16.60;79.37
22096;BME280;24083;55.670;37.568;2023-06-10T02:53:13;99490.59;;;16.81;78.63
22096;BME280;24083;55.670;37.568;2023-06-10T02:55:47;99496.47;;;16.71;79.49
22096;BME280;24083;55.670;37.568;2023-06-10T02:58:15;99496.66;;;15.46;81.30
22096;BME280;24083;55.670;37.568;2023-06-10T03:03:51;99504.81;;;16.25;80.06
22096;BME280;24083;55.670;37.568;2023-06-10T03:06:22;99505.69;;;15.83;80.95
22096;BME280;24083;55.670;37.568;2023-06-10T03:11:47;99507.63;;;15.52;81.89
22096;BME280;24083;55.670;37.568;2023-06-10T03:14:13;99500.19;;;16.01;79.49
22096;BME280;24083;55.670;37.568;2023-06-10T03:16:38;99510.72;;;15.59;81.38
22096;BME280;24083;55.670;37.568;2023-06-10T03:19:22;99511.94;;;15.39;81.20
22096;BME280;24083;55.670;37.568;2023-06-10T03:22:06;99502.16;;;15.55;81.24
22096;BME280;24083;55.670;37.568;2023-06-10T03:25:02;99505.16;;;15.64;79.79
22096;BME280;24083;55.670;37.568;2023-06-10T03:27:29;99503.69;;;15.02;81.36
22096;BME280;24083;55.670;37.568;2023-06-10T03:29:58;99508.75;;;15.48;80.84
22096;BME280;24083;55.670;37.568;2023-06-10T03:32:23;99511.78;;;15.98;79.70
22096;BME280;24083;55.670;37.568;2023-06-10T03:34:50;99514.19;;;15.45;80.47
22096;BME280;24083;55.670;37.568;2023-06-10T03:37:18;99506.47;;;16.79;78.31
22096;BME280;24083;55.670;37.568;2023-06-10T03:40:01;99512.28;;;16.97;77.13
22096;BME280;24083;55.670;37.568;2023-06-10T03:45:24;99514.09;;;16.43;79.15
22096;BME280;24083;55.670;37.568;2023-06-10T03:48:03;99514.94;;;15.47;79.25
22096;BME280;24083;55.670;37.568;2023-06-10T03:50:40;99524.13;;;15.40;80.23
22096;BME280;24083;55.670;37.568;2023-06-10T03:53:10;99528.06;;;15.62;80.52
22096;BME280;24083;55.670;37.568;2023-06-10T03:55:38;99516.25;;;16.64;78.32
22096;BME280;24083;55.670;37.568;2023-06-10T03:58:05;99522.56;;;15.94;79.08
22096;BME280;24083;55.670;37.568;2023-06-10T04:00:34;99516.47;;;16.61;77.74
22096;BME280;24083;55.670;37.568;2023-06-10T04:03:09;99525.75;;;16.26;78.25
22096;BME280;24083;55.670;37.568;2023-06-10T04:05:42;99526.19;;;15.64;79.28
22096;BME280;24083;55.670;37.568;2023-06-10T04:08:14;99533.91;;;16.36;77.99
22096;BME280;24083;55.670;37.568;2023-06-10T04:13:32;99530.94;;;17.20;76.66
22096;BME280;24083;55.670;37.568;2023-06-10T04:16:05;99529.78;;;17.24;76.08
22096;BME280;24083;55.670;37.568;2023-06-10T04:18:35;99531.16;;;17.43;75.75
22096;BME280;24083;55.670;37.568;2023-06-10T04:21:26;99525.16;;;17.15;76.18
22096;BME280;24083;55.670;37.568;2023-06-10T04:23:51;99533.91;;;16.36;77.30
22096;BME280;24083;55.670;37.568;2023-06-10T04:29:08;99533.97;;;16.88;75.57
22096;BME280;24083;55.670;37.568;2023-06-10T04:31:40;99539.94;;;16.77;76.74
22096;BME280;24083;55.670;37.568;2023-06-10T04:34:06;99535.00;;;16.72;75.59
22096;BME280;24083;55.670;37.568;2023-06-10T04:36:39;99534.41;;;17.33;75.60
22096;BME280;24083;55.670;37.568;2023-06-10T04:39:05;99542.16;;;16.57;76.75
22096;BME280;24083;55.670;37.568;2023-06-10T04:44:34;99543.03;;;16.84;75.83
22096;BME280;24083;55.670;37.568;2023-06-10T04:47:00;99550.69;;;16.34;76.51
22096;BME280;24083;55.670;37.568;2023-06-10T04:49:26;99547.13;;;16.35;75.48
22096;BME280;24083;55.670;37.568;2023-06-10T04:51:52;99541.56;;;16.80;75.44
22096;BME280;24083;55.670;37.568;2023-06-10T04:54:18;99545.28;;;17.79;74.12
22096;BME280;24083;55.670;37.568;2023-06-10T04:56:44;99548.75;;;17.03;74.18
22096;BME280;24083;55.670;37.568;2023-06-10T04:59:10;99547.03;;;17.54;74.01
22096;BME280;24083;55.670;37.568;2023-06-10T05:01:43;99544.13;;;17.07;72.80
22096;BME280;24083;55.670;37.568;2023-06-10T05:04:08;99557.63;;;16.22;75.30
22096;BME280;24083;55.670;37.568;2023-06-10T05:06:41;99556.47;;;16.66;74.92
22096;BME280;24083;55.670;37.568;2023-06-10T05:09:09;99553.91;;;16.52;74.17
22096;BME280;24083;55.670;37.568;2023-06-10T05:11:34;99552.19;;;17.56;73.45
22096;BME280;24083;55.670;37.568;2023-06-10T05:14:00;99551.97;;;17.96;71.93
22096;BME280;24083;55.670;37.568;2023-06-10T05:16:27;99555.00;;;16.75;72.91
22096;BME280;24083;55.670;37.568;2023-06-10T05:18:55;99557.78;;;17.64;72.36
22096;BME280;24083;55.670;37.568;2023-06-10T05:21:29;99558.25;;;17.06;73.14
22096;BME280;24083;55.670;37.568;2023-06-10T05:23:55;99561.34;;;16.72;73.06
22096;BME280;24083;55.670;37.568;2023-06-10T05:26:21;99554.88;;;17.43;72.40
22096;BME280;24083;55.670;37.568;2023-06-10T05:28:47;99553.59;;;17.23;72.68
22096;BME280;24083;55.670;37.568;2023-06-10T05:33:44;99558.59;;;18.75;70.07
22096;BME280;24083;55.670;37.568;2023-06-10T05:36:09;99564.09;;;17.61;71.58
22096;BME280;24083;55.670;37.568;2023-06-10T05:38:35;99557.06;;;18.83;70.48
22096;BME280;24083;55.670;37.568;2023-06-10T05:41:03;99561.94;;;19.12;70.81
22096;BME280;24083;55.670;37.568;2023-06-10T05:43:30;99561.72;;;17.95;70.70
22096;BME280;24083;55.670;37.568;2023-06-10T05:46:03;99577.72;;;16.63;72.62
22096;BME280;24083;55.670;37.568;2023-06-10T05:48:29;99585.22;;;17.35;72.39
22096;BME280;24083;55.670;37.568;2023-06-10T05:50:55;99577.91;;;16.47;73.43
22096;BME280;24083;55.670;37.568;2023-06-10T05:53:22;99570.31;;;16.83;72.59
22096;BME280;24083;55.670;37.568;2023-06-10T05:55:48;99568.47;;;18.48;71.04
22096;BME280;24083;55.670;37.568;2023-06-10T05:58:14;99569.91;;;19.47;69.02
22096;BME280;24083;55.670;37.568;2023-06-10T06:03:11;99560.16;;;19.47;68.06
22096;BME280;24083;55.670;37.568;2023-06-10T06:05:37;99557.03;;;20.20;68.04
22096;BME280;24083;55.670;37.568;2023-06-10T06:08:05;99570.22;;;18.72;69.88
22096;BME280;24083;55.670;37.568;2023-06-10T06:10:44;99579.25;;;17.71;70.49
22096;BME280;24083;55.670;37.568;2023-06-10T06:13:11;99577.31;;;16.01;72.40
22096;BME280;24083;55.670;37.568;2023-06-10T06:15:37;99577.16;;;17.76;70.39
22096;BME280;24083;55.670;37.568;2023-06-10T06:18:03;99572.78;;;19.32;68.24
22096;BME280;24083;55.670;37.568;2023-06-10T06:20:30;99572.53;;;19.47;66.85
22096;BME280;24083;55.670;37.568;2023-06-10T06:22:56;99568.19;;;19.91;66.67
22096;BME280;24083;55.670;37.568;2023-06-10T06:25:23;99576.84;;;18.78;68.81
22096;BME280;24083;55.670;37.568;2023-06-10T06:27:48;99575.41;;;19.43;68.42
22096;BME280;24083;55.670;37.568;2023-06-10T06:30:17;99583.72;;;18.56;68.50
22096;BME280;24083;55.670;37.568;2023-06-10T06:32:42;99565.81;;;17.37;70.28
22096;BME280;24083;55.670;37.568;2023-06-10T06:35:09;99582.16;;;18.05;70.30
22096;BME280;24083;55.670;37.568;2023-06-10T06:37:37;99591.50;;;17.72;71.15
22096;BME280;24083;55.670;37.568;2023-06-10T06:42:46;99602.59;;;16.72;70.66
22096;BME280;24083;55.670;37.568;2023-06-10T06:45:30;99590.44;;;19.32;67.64
22096;BME280;24083;55.670;37.568;2023-06-10T06:47:56;99608.44;;;18.31;68.65
22096;BME280;24083;55.670;37.568;2023-06-10T06:50:24;99606.13;;;19.10;68.04
22096;BME280;24083;55.670;37.568;2023-06-10T06:52:51;99599.78;;;19.24;67.97
22096;BME280;24083;55.670;37.568;2023-06-10T06:55:16;99611.53;;;17.10;69.72
22096;BME280;24083;55.670;37.568;2023-06-10T06:57:43;99595.69;;;17.87;68.98
22096;BME280;24083;55.670;37.568;2023-06-10T07:00:10;99595.25;;;17.80;68.73
22096;BME280;24083;55.670;37.568;2023-06-10T07:02:36;99599.66;;;19.03;67.77
22096;BME280;24083;55.670;37.568;2023-06-10T07:07:33;99603.78;;;19.41;66.30
22096;BME280;24083;55.670;37.568;2023-06-10T07:12:28;99609.69;;;18.38;66.96
22096;BME280;24083;55.670;37.568;2023-06-10T07:14:54;99613.69;;;18.79;65.83
22096;BME280;24083;55.670;37.568;2023-06-10T07:17:20;99608.22;;;19.98;64.27
22096;BME280;24083;55.670;37.568;2023-06-10T07:19:48;99607.63;;;20.06;64.09
22096;BME280;24083;55.670;37.568;2023-06-10T07:25:40;99601.44;;;20.60;63.95
22096;BME280;24083;55.670;37.568;2023-06-10T07:28:07;99603.69;;;20.33;64.64
22096;BME280;24083;55.670;37.568;2023-06-10T07:30:33;99602.44;;;19.93;64.03
22096;BME280;24083;55.670;37.568;2023-06-10T07:33:00;99613.81;;;20.27;65.28
22096;BME280;24083;55.670;37.568;2023-06-10T07:35:29;99621.72;;;18.42;65.53
22096;BME280;24083;55.670;37.568;2023-06-10T07:37:57;99632.75;;;18.96;66.37
22096;BME280;24083;55.670;37.568;2023-06-10T07:40:23;99622.44;;;18.68;65.28
22096;BME280;24083;55.670;37.568;2023-06-10T07:42:54;99619.22;;;17.90;65.25
22096;BME280;24083;55.670;37.568;2023-06-10T07:47:57;99630.31;;;17.70;66.33
22096;BME280;24083;55.670;37.568;2023-06-10T07:50:26;99626.56;;;18.11;64.34
22096;BME280;24083;55.670;37.568;2023-06-10T07:52:53;99621.44;;;17.06;65.60
22096;BME280;24083;55.670;37.568;2023-06-10T07:55:27;99626.41;;;18.74;64.76
22096;BME280;24083;55.670;37.568;2023-06-10T07:57:55;99616.75;;;19.79;63.57
22096;BME280;24083;55.670;37.568;2023-06-10T08:00:22;99622.41;;;19.63;63.95
22096;BME280;24083;55.670;37.568;2023-06-10T08:02:48;99617.41;;;19.12;62.76
22096;BME280;24083;55.670;37.568;2023-06-10T08:05:16;99627.75;;;18.56;62.89
22096;BME280;24083;55.670;37.568;2023-06-10T08:07:46;99622.94;;;18.49;62.29
22096;BME280;24083;55.670;37.568;2023-06-10T08:10:30;99623.97;;;19.54;61.42
22096;BME280;24083;55.670;37.568;2023-06-10T08:15:48;99626.75;;;19.98;61.07
22096;BME280;24083;55.670;37.568;2023-06-10T08:18:17;99616.28;;;19.51;61.35
22096;BME280;24083;55.670;37.568;2023-06-10T08:20:47;99626.91;;;18.79;62.05
22096;BME280;24083;55.670;37.568;2023-06-10T08:23:15;99635.06;;;19.93;62.20
22096;BME280;24083;55.670;37.568;2023-06-10T08:25:40;99653.41;;;17.79;62.50
22096;BME280;24083;55.670;37.568;2023-06-10T08:28:07;99649.84;;;19.15;60.44
22096;BME280;24083;55.670;37.568;2023-06-10T08:30:38;99648.94;;;18.43;60.75
22096;BME280;24083;55.670;37.568;2023-06-10T08:33:05;99660.06;;;17.46;62.63
22096;BME280;24083;55.670;37.568;2023-06-10T08:35:47;99650.63;;;18.06;62.50
22096;BME280;24083;55.670;37.568;2023-06-10T08:38:14;99646.47;;;19.94;60.85
22096;BME280;24083;55.670;37.568;2023-06-10T08:46:19;99655.06;;;18.43;59.88
22096;BME280;24083;55.670;37.568;2023-06-10T08:48:49;99654.09;;;18.20;59.91
22096;BME280;24083;55.670;37.568;2023-06-10T08:54:32;99664.25;;;18.62;59.07
22096;BME280;24083;55.670;37.568;2023-06-10T09:01:13;99654.84;;;20.77;56.35
22096;BME280;24083;55.670;37.568;2023-06-10T09:03:39;99659.97;;;19.21;54.91
22096;BME280;24083;55.670;37.568;2023-06-10T09:06:06;99655.16;;;18.66;55.14
22096;BME280;24083;55.670;37.568;2023-06-10T09:08:33;99658.34;;;17.97;56.62
22096;BME280;24083;55.670;37.568;2023-06-10T09:16:29;99660.31;;;19.97;55.91
22096;BME280;24083;55.670;37.568;2023-06-10T09:21:53;99662.47;;;18.87;56.85
22096;BME280;24083;55.670;37.568;2023-06-10T09:30:00;99669.53;;;17.61;57.26
22096;BME280;24083;55.670;37.568;2023-06-10T09:34:57;99652.94;;;20.12;55.53
22096;BME280;24083;55.670;37.568;2023-06-10T09:42:54;99660.03;;;19.66;55.96
22096;BME280;24083;55.670;37.568;2023-06-10T09:47:51;99654.47;;;20.38;53.69
22096;BME280;24083;55.670;37.568;2023-06-10T09:50:19;99657.41;;;21.00;52.52
22096;BME280;24083;55.670;37.568;2023-06-10T09:52:45;99659.09;;;21.74;51.79
22096;BME280;24083;55.670;37.568;2023-06-10T09:55:11;99675.19;;;19.76;54.16
22096;BME280;24083;55.670;37.568;2023-06-10T09:57:38;99671.97;;;19.25;54.91
22096;BME280;24083;55.670;37.568;2023-06-10T10:00:10;99661.47;;;19.70;55.58
22096;BME280;24083;55.670;37.568;2023-06-10T10:02:46;99669.78;;;20.11;55.14
22096;BME280;24083;55.670;37.568;2023-06-10T10:05:15;99680.00;;;19.82;56.54
22096;BME280;24083;55.670;37.568;2023-06-10T10:07:41;99686.38;;;19.21;56.99
22096;BME280;24083;55.670;37.568;2023-06-10T10:10:18;99670.34;;;20.38;56.17
22096;BME280;24083;55.670;37.568;2023-06-10T10:12:46;99676.13;;;19.75;55.48
22096;BME280;24083;55.670;37.568;2023-06-10T10:15:15;99677.03;;;20.65;55.59
22096;BME280;24083;55.670;37.568;2023-06-10T10:18:00;99672.28;;;20.24;53.89
22096;BME280;24083;55.670;37.568;2023-06-10T10:20:29;99679.91;;;19.95;54.66
22096;BME280;24083;55.670;37.568;2023-06-10T10:23:03;99677.63;;;20.13;54.81
22096;BME280;24083;55.670;37.568;2023-06-10T10:25:52;99681.44;;;19.75;54.16
22096;BME280;24083;55.670;37.568;2023-06-10T10:28:19;99670.75;;;20.77;53.33
22096;BME280;24083;55.670;37.568;2023-06-10T10:30:47;99669.34;;;20.61;53.24
22096;BME280;24083;55.670;37.568;2023-06-10T10:33:21;99666.75;;;19.48;54.17
22096;BME280;24083;55.670;37.568;2023-06-10T10:36:58;99655.94;;;22.31;51.20
22096;BME280;24083;55.670;37.568;2023-06-10T10:39:29;99669.94;;;20.54;52.53
22096;BME280;24083;55.670;37.568;2023-06-10T10:42:04;99649.19;;;22.17;51.21
22096;BME280;24083;55.670;37.568;2023-06-10T10:44:31;99652.97;;;22.15;51.15
22096;BME280;24083;55.670;37.568;2023-06-10T10:47:02;99660.31;;;21.39;51.69
22096;BME280;24083;55.670;37.568;2023-06-10T10:49:32;99659.13;;;20.89;51.73
22096;BME280;24083;55.670;37.568;2023-06-10T10:52:00;99669.34;;;20.94;52.89
22096;BME280;24083;55.670;37.568;2023-06-10T10:54:34;99668.16;;;20.43;53.62
22096;BME280;24083;55.670;37.568;2023-06-10T10:57:14;99667.50;;;21.06;51.38
22096;BME280;24083;55.670;37.568;2023-06-10T10:59:51;99679.03;;;18.89;51.85
22096;BME280;24083;55.670;37.568;2023-06-10T11:02:18;99667.53;;;20.51;51.34
22096;BME280;24083;55.670;37.568;2023-06-10T11:04:48;99671.81;;;21.07;50.79
22096;BME280;24083;55.670;37.568;2023-06-10T11:07:14;99672.13;;;20.93;51.18
22096;BME280;24083;55.670;37.568;2023-06-10T11:15:18;99673.72;;;20.40;51.25
22096;BME280;24083;55.670;37.568;2023-06-10T11:20:41;99672.84;;;21.37;52.43
22096;BME280;24083;55.670;37.568;2023-06-10T11:23:07;99672.78;;;20.29;52.18
22096;BME280;24083;55.670;37.568;2023-06-10T11:25:40;99681.38;;;20.54;51.91
22096;BME280;24083;55.670;37.568;2023-06-10T11:28:28;99677.53;;;20.58;51.89
22096;BME280;24083;55.670;37.568;2023-06-10T11:30:57;99687.97;;;19.93;52.47
22096;BME280;24083;55.670;37.568;2023-06-10T11:33:25;99677.69;;;20.89;50.96
22096;BME280;24083;55.670;37.568;2023-06-10T11:35:51;99682.06;;;19.90;51.57
22096;BME280;24083;55.670;37.568;2023-06-10T11:38:18;99689.28;;;20.10;51.56
22096;BME280;24083;55.670;37.568;2023-06-10T11:40:51;99682.16;;;19.77;51.71
22096;BME280;24083;55.670;37.568;2023-06-10T11:43:21;99679.09;;;20.94;50.36
22096;BME280;24083;55.670;37.568;2023-06-10T11:45:53;99674.31;;;20.76;48.75
22096;BME280;24083;55.670;37.568;2023-06-10T11:48:21;99657.22;;;21.86;46.51
22096;BME280;24083;55.670;37.568;2023-06-10T11:50:47;99659.28;;;23.51;45.70
22096;BME280;24083;55.670;37.568;2023-06-10T11:53:13;99672.06;;;21.46;46.28
22096;BME280;24083;55.670;37.568;2023-06-10T11:58:11;99663.16;;;21.47;47.45
22096;BME280;24083;55.670;37.568;2023-06-10T12:00:43;99672.59;;;21.40;48.82
22096;BME280;24083;55.670;37.568;2023-06-10T12:03:10;99683.84;;;19.78;50.42
22096;BME280;24083;55.670;37.568;2023-06-10T12:05:35;99687.06;;;21.15;49.19
22096;BME280;24083;55.670;37.568;2023-06-10T12:08:10;99687.56;;;20.76;49.87
22096;BME280;24083;55.670;37.568;2023-06-10T12:10:44;99682.94;;;21.43;49.81
22096;BME280;24083;55.670;37.568;2023-06-10T12:13:09;99687.59;;;21.30;49.48
22096;BME280;24083;55.670;37.568;2023-06-10T12:15:36;99685.03;;;21.18;48.54
22096;BME280;24083;55.670;37.568;2023-06-10T12:18:03;99673.06;;;21.76;47.17
22096;BME280;24083;55.670;37.568;2023-06-10T12:20:30;99680.16;;;21.45;47.43
22096;BME280;24083;55.670;37.568;2023-06-10T12:23:00;99675.69;;;21.45;47.68
22096;BME280;24083;55.670;37.568;2023-06-10T12:27:57;99678.66;;;21.31;48.54
22096;BME280;24083;55.670;37.568;2023-06-10T12:30:24;99678.81;;;23.80;46.04
22096;BME280;24083;55.670;37.568;2023-06-10T12:32:52;99682.44;;;22.12;45.44
22096;BME280;24083;55.670;37.568;2023-06-10T12:35:23;99669.47;;;25.22;45.04
22096;BME280;24083;55.670;37.568;2023-06-10T12:38:03;99656.25;;;27.98;43.20
22096;BME280;24083;55.670;37.568;2023-06-10T12:40:34;99659.34;;;26.21;42.10
22096;BME280;24083;55.670;37.568;2023-06-10T12:43:02;99655.81;;;24.63;43.18
22096;BME280;24083;55.670;37.568;2023-06-10T12:45:33;99655.63;;;25.00;43.69
22096;BME280;24083;55.670;37.568;2023-06-10T12:48:09;99648.66;;;26.21;42.54
22096;BME280;24083;55.670;37.568;2023-06-10T12:50:36;99638.47;;;28.06;41.22
22096;BME280;24083;55.670;37.568;2023-06-10T12:53:02;99645.88;;;26.81;41.98
22096;BME280;24083;55.670;37.568;2023-06-10T12:55:31;99649.22;;;25.99;42.67
22096;BME280;24083;55.670;37.568;2023-06-10T12:57:58;99664.59;;;22.33;46.29
22096;BME280;24083;55.670;37.568;2023-06-10T13:00:28;99669.50;;;21.14;48.06
22096;BME280;24083;55.670;37.568;2023-06-10T13:02:56;99676.03;;;20.77;48.26
22096;BME280;24083;55.670;37.568;2023-06-10T13:07:52;99677.66;;;20.45;47.85
22096;BME280;24083;55.670;37.568;2023-06-10T13:10:18;99679.38;;;22.77;47.15
22096;BME280;24083;55.670;37.568;2023-06-10T13:12:45;99676.44;;;24.14;45.09
22096;BME280;24083;55.670;37.568;2023-06-10T13:15:14;99686.91;;;23.11;45.92
22096;BME280;24083;55.670;37.568;2023-06-10T13:17:43;99663.91;;;25.95;43.58
22096;BME280;24083;55.670;37.568;2023-06-10T13:20:10;99663.22;;;25.31;42.95
22096;BME280;24083;55.670;37.568;2023-06-10T13:25:08;99663.69;;;25.09;43.70
22096;BME280;24083;55.670;37.568;2023-06-10T13:27:36;99687.06;;;23.19;45.65
22096;BME280;24083;55.670;37.568;2023-06-10T13:30:09;99676.19;;;23.98;44.86
22096;BME280;24083;55.670;37.568;2023-06-10T13:32:37;99683.06;;;23.63;45.90
22096;BME280;24083;55.670;37.568;2023-06-10T13:35:03;99685.94;;;22.92;46.68
22096;BME280;24083;55.670;37.568;2023-06-10T13:37:29;99684.81;;;22.85;46.36
22096;BME280;24083;55.670;37.568;2023-06-10T13:39:55;99681.66;;;22.41;46.74
22096;BME280;24083;55.670;37.568;2023-06-10T13:42:21;99684.78;;;21.64;46.75
22096;BME280;24083;55.670;37.568;2023-06-10T13:44:47;99686.50;;;21.54;47.27
22096;BME280;24083;55.670;37.568;2023-06-10T13:47:13;99681.63;;;22.21;46.91
22096;BME280;24083;55.670;37.568;2023-06-10T13:57:21;99676.59;;;25.40;43.46
22096;BME280;24083;55.670;37.568;2023-06-10T13:59:48;99679.59;;;20.43;48.76
22096;BME280;24083;55.670;37.568;2023-06-10T14:02:14;99683.91;;;21.00;48.64
22096;BME280;24083;55.670;37.568;2023-06-10T14:04:41;99689.00;;;23.07;46.63
22096;BME280;24083;55.670;37.568;2023-06-10T14:07:08;99689.19;;;21.85;47.85
22096;BME280;24083;55.670;37.568;2023-06-10T14:09:35;99699.69;;;20.57;47.87
22096;BME280;24083;55.670;37.568;2023-06-10T14:12:03;99705.50;;;20.28;48.07
22096;BME280;24083;55.670;37.568;2023-06-10T14:14:32;99709.78;;;20.64;47.75
22096;BME280;24083;55.670;37.568;2023-06-10T14:17:10;99715.59;;;20.46;48.18
22096;BME280;24083;55.670;37.568;2023-06-10T14:19:37;99708.94;;;21.49;46.92
22096;BME280;24083;55.670;37.568;2023-06-10T14:22:04;99701.47;;;22.17;45.94
22096;BME280;24083;55.670;37.568;2023-06-10T14:24:38;99708.53;;;21.75;46.26
22096;BME280;24083;55.670;37.568;2023-06-10T14:27:05;99692.91;;;23.90;44.39
22096;BME280;24083;55.670;37.568;2023-06-10T14:29:34;99687.91;;;24.61;43.57
22096;BME280;24083;55.670;37.568;2023-06-10T14:32:04;99689.88;;;25.31;43.03
22096;BME280;24083;55.670;37.568;2023-06-10T14:34:31;99685.00;;;26.57;42.00
22096;BME280;24083;55.670;37.568;2023-06-10T14:37:01;99676.25;;;26.39;42.33
22096;BME280;24083;55.670;37.568;2023-06-10T14:39:29;99664.47;;;28.60;40.30
22096;BME280;24083;55.670;37.568;2023-06-10T14:41:56;99669.88;;;28.20;39.37
22096;BME280;24083;55.670;37.568;2023-06-10T14:44:23;99671.06;;;25.59;42.28
22096;BME280;24083;55.670;37.568;2023-06-10T14:46:52;99681.88;;;25.50;43.17
22096;BME280;24083;55.670;37.568;2023-06-10T14:49:18;99682.88;;;26.86;41.19
22096;BME280;24083;55.670;37.568;2023-06-10T14:51:44;99692.75;;;24.76;43.35
22096;BME280;24083;55.670;37.568;2023-06-10T14:57:06;99708.53;;;23.65;45.76
22096;BME280;24083;55.670;37.568;2023-06-10T14:59:35;99705.38;;;22.83;46.44
22096;BME280;24083;55.670;37.568;2023-06-10T15:02:01;99707.50;;;22.99;47.10
22096;BME280;24083;55.670;37.568;2023-06-10T15:04:27;99694.94;;;24.62;45.29
22096;BME280;24083;55.670;37.568;2023-06-10T15:07:06;99697.59;;;26.81;43.56
22096;BME280;24083;55.670;37.568;2023-06-10T15:09:32;99716.19;;;23.31;43.36
22096;BME280;24083;55.670;37.568;2023-06-10T15:12:18;99693.56;;;24.94;43.97
22096;BME280;24083;55.670;37.568;2023-06-10T15:14:43;99684.66;;;26.09;42.89
22096;BME280;24083;55.670;37.568;2023-06-10T15:17:09;99674.63;;;26.11;42.86
22096;BME280;24083;55.670;37.568;2023-06-10T15:19:35;99698.22;;;27.42;41.97
22096;BME280;24083;55.670;37.568;2023-06-10T15:22:00;99706.34;;;23.89;44.47
22096;BME280;24083;55.670;37.568;2023-06-10T15:24:26;99707.59;;;24.04;44.04
22096;BME280;24083;55.670;37.568;2023-06-10T15:26:52;99709.09;;;23.69;43.44
22096;BME280;24083;55.670;37.568;2023-06-10T15:29:18;99702.06;;;24.43;42.95
22096;BME280;24083;55.670;37.568;2023-06-10T15:31:47;99705.00;;;24.68;43.75
22096;BME280;24083;55.670;37.568;2023-06-10T15:34:13;99695.81;;;26.39;42.28